Time;durP1;ratioP1;P1;durP2;ratioP2;P2;SDS_P1;SDS_P2;PMS_P1;PMS_P2;Temp;Humidity;BMP_temperature;BMP_pressure;BME280_temperature;BME280_humidity;BME280_pressure;Samples;Min_cycle;Max_cycle;Signal;HPM_P1;HPM_P2
2021/10/30 06:00:34;;;;;;;6.78;1.13;;;10.80;99.90;;;;;;5772106;23;20051;-79
2021/10/30 06:03:01;;;;;;;10.30;1.15;;;10.70;99.90;;;;;;4906709;29;20056;-80
2021/10/30 06:05:28;;;;;;;12.23;1.35;;;10.70;99.90;;;;;;4924562;29;20523;-79
2021/10/30 06:07:56;;;;;;;6.90;0.90;;;10.70;99.90;;;;;;4933998;29;20051;-79
2021/10/30 06:10:23;;;;;;;6.55;1.25;;;10.80;99.90;;;;;;4920219;29;20074;-79
2021/10/30 06:12:50;;;;;;;5.65;0.85;;;10.80;99.90;;;;;;4932131;29;20051;-79
2021/10/30 06:15:17;;;;;;;8.07;2.00;;;10.80;99.90;;;;;;4935151;29;20054;-79
2021/10/30 06:17:44;;;;;;;5.93;1.15;;;10.90;99.90;;;;;;4935193;29;20064;-81
2021/10/30 06:20:11;;;;;;;6.95;1.05;;;10.90;99.90;;;;;;4934947;29;20107;-81
2021/10/30 06:22:42;;;;;;;5.07;1.45;;;10.90;99.90;;;;;;4935423;29;20040;-78
2021/10/30 06:25:11;;;;;;;5.28;0.73;;;10.90;99.90;;;;;;4935128;29;20660;-78
2021/10/30 06:27:38;;;;;;;;;;;11.00;99.90;;;;;;4936134;29;20048;-78
2021/10/30 06:30:07;;;;;;;5.18;0.63;;;11.00;99.90;;;;;;4935109;29;19978;-78
2021/10/30 06:32:34;;;;;;;3.72;0.73;;;11.00;99.90;;;;;;4935054;29;20044;-78
2021/10/30 06:35:01;;;;;;;4.18;0.68;;;11.00;99.90;;;;;;4935000;29;20071;-78
2021/10/30 06:37:28;;;;;;;1.48;0.40;;;11.00;99.90;;;;;;4934926;29;20091;-78
2021/10/30 06:39:55;;;;;;;3.80;0.75;;;11.00;99.90;;;;;;4920433;29;20048;-77
2021/10/30 06:42:22;;;;;;;2.92;0.70;;;11.10;99.90;;;;;;4934462;29;20094;-78
2021/10/30 06:44:49;;;;;;;2.00;0.40;;;11.10;99.90;;;;;;4935364;29;20047;-78
2021/10/30 06:47:16;;;;;;;2.33;0.80;;;11.10;99.90;;;;;;4934486;29;20539;-78
2021/10/30 06:49:43;;;;;;;1.35;0.30;;;11.10;99.90;;;;;;4934766;29;20047;-79
2021/10/30 06:52:10;;;;;;;1.95;0.30;;;11.10;99.90;;;;;;4934595;29;20081;-80
2021/10/30 06:54:37;;;;;;;2.30;0.50;;;11.10;99.90;;;;;;4935681;29;20040;-77
2021/10/30 06:57:07;;;;;;;2.17;0.40;;;11.10;99.90;;;;;;4934883;29;20095;-77
2021/10/30 06:59:35;;;;;;;2.70;0.47;;;11.10;99.90;;;;;;4934337;29;20110;-78
2021/10/30 07:02:03;;;;;;;1.42;0.52;;;11.10;99.90;;;;;;4934324;29;20051;-77
2021/10/30 07:04:33;;;;;;;2.42;0.40;;;11.10;99.90;;;;;;4934521;29;20044;-77
2021/10/30 07:07:00;;;;;;;2.17;0.50;;;11.00;99.90;;;;;;4934746;29;20538;-78
2021/10/30 07:09:27;;;;;;;2.00;0.50;;;11.00;99.90;;;;;;4933401;29;20047;-77
2021/10/30 07:11:53;;;;;;;2.35;0.52;;;11.00;99.90;;;;;;4934244;29;20079;-78
2021/10/30 07:14:40;;;;;;;1.10;0.32;;;11.00;99.90;;;;;;4933830;29;20048;-77
2021/10/30 07:17:07;;;;;;;2.67;0.40;;;11.00;99.90;;;;;;4924436;29;20078;-77
2021/10/30 07:19:34;;;;;;;2.53;0.30;;;11.00;99.90;;;;;;4928950;29;20106;-80
2021/10/30 07:22:01;;;;;;;2.75;0.43;;;11.00;99.90;;;;;;4922019;29;20048;-80
2021/10/30 07:24:27;;;;;;;2.28;0.40;;;10.90;99.90;;;;;;4929571;29;20504;-77
2021/10/30 07:26:54;;;;;;;1.42;0.40;;;11.00;99.90;;;;;;4927805;29;20127;-80
2021/10/30 07:29:21;;;;;;;3.60;0.55;;;10.90;99.90;;;;;;4927695;29;20040;-80
2021/10/30 07:31:48;;;;;;;3.05;0.57;;;10.90;99.90;;;;;;4927018;29;20075;-79
2021/10/30 07:34:15;;;;;;;1.80;0.50;;;10.90;99.90;;;;;;4928094;29;20394;-79
2021/10/30 07:36:41;;;;;;;3.38;1.05;;;10.90;99.90;;;;;;4923153;29;20052;-79
2021/10/30 07:39:08;;;;;;;5.63;0.70;;;10.90;99.90;;;;;;4929254;29;20051;-79
2021/10/30 07:41:35;;;;;;;5.97;0.60;;;11.00;99.90;;;;;;4928276;29;20075;-79
2021/10/30 07:44:02;;;;;;;2.70;0.70;;;11.00;99.90;;;;;;4921044;29;20091;-78
2021/10/30 07:46:31;;;;;;;5.82;0.63;;;11.00;99.90;;;;;;4923181;29;20059;-79
2021/10/30 07:48:58;;;;;;;4.88;0.80;;;11.10;99.90;;;;;;4929165;29;20055;-79
2021/10/30 07:51:24;;;;;;;2.65;0.70;;;11.10;99.90;;;;;;4923037;29;20047;-77
2021/10/30 07:53:51;;;;;;;5.38;0.82;;;11.20;99.90;;;;;;4928802;29;20051;-76
2021/10/30 07:56:18;;;;;;;7.68;1.05;;;11.20;99.90;;;;;;4928308;29;20134;-78
2021/10/30 07:58:46;;;;;;;9.75;0.85;;;11.30;99.90;;;;;;4924987;29;20523;-77
2021/10/30 08:01:15;;;;;;;5.30;1.25;;;11.40;99.90;;;;;;4924286;29;20064;-79
2021/10/30 08:03:42;;;;;;;5.82;0.95;;;11.40;99.90;;;;;;4925249;29;20224;-78
2021/10/30 08:06:09;;;;;;;4.93;0.82;;;11.50;99.90;;;;;;4922388;29;20126;-80
2021/10/30 08:08:36;;;;;;;4.70;0.90;;;11.50;99.90;;;;;;4923056;29;20048;-79
2021/10/30 08:11:03;;;;;;;7.95;0.82;;;11.50;99.90;;;;;;4923967;29;20111;-79
2021/10/30 08:13:31;;;;;;;9.05;1.25;;;11.60;99.90;;;;;;4914727;29;20047;-78
2021/10/30 08:15:58;;;;;;;9.57;1.23;;;11.60;99.90;;;;;;4914997;29;20051;-79
2021/10/30 08:18:25;;;;;;;5.97;1.02;;;11.60;99.90;;;;;;4915906;29;20131;-79
2021/10/30 08:20:55;;;;;;;7.25;1.08;;;11.70;99.90;;;;;;4918750;29;20122;-78
2021/10/30 08:23:22;;;;;;;6.60;0.70;;;11.70;99.90;;;;;;4913765;29;20058;-79
2021/10/30 08:25:49;;;;;;;6.03;0.93;;;11.70;99.90;;;;;;4914725;29;20548;-78
2021/10/30 08:28:17;;;;;;;8.43;0.82;;;11.80;99.90;;;;;;4916999;29;20051;-78
2021/10/30 08:30:44;;;;;;;6.40;0.88;;;11.80;99.90;;;;;;4914788;29;20561;-78
2021/10/30 08:33:12;;;;;;;4.82;1.40;;;11.80;99.90;;;;;;4925033;29;20560;-78
2021/10/30 08:35:40;;;;;;;6.50;1.08;;;11.80;99.90;;;;;;4922433;29;20099;-78
2021/10/30 08:38:09;;;;;;;9.97;0.90;;;11.80;99.90;;;;;;4926365;29;20089;-78
2021/10/30 08:40:37;;;;;;;;;;;11.90;99.90;;;;;;4927692;29;20324;-78
2021/10/30 08:43:21;;;;;;;6.25;0.95;;;11.90;99.90;;;;;;4925692;29;19927;-76
2021/10/30 08:45:50;;;;;;;7.72;0.85;;;11.90;99.90;;;;;;4917679;29;20429;-74
2021/10/30 08:48:24;;;;;;;10.40;1.40;;;12.00;99.90;;;;;;4921767;29;20107;-75
2021/10/30 08:50:53;;;;;;;8.13;0.90;;;12.00;99.90;;;;;;4920589;29;20083;-76
2021/10/30 08:53:21;;;;;;;5.95;1.02;;;12.10;99.90;;;;;;4920116;29;20444;-78
2021/10/30 08:55:48;;;;;;;6.65;0.90;;;12.10;99.90;;;;;;4922205;29;20087;-76
2021/10/30 08:58:16;;;;;;;4.28;0.80;;;12.30;99.90;;;;;;4922223;29;20508;-76
2021/10/30 09:00:47;;;;;;;3.67;0.90;;;12.30;99.90;;;;;;4923030;29;20139;-77
2021/10/30 09:03:16;;;;;;;6.45;0.82;;;12.50;99.90;;;;;;4925393;29;20048;-77
2021/10/30 09:05:45;;;;;;;5.13;0.88;;;12.50;99.90;;;;;;4922023;29;20138;-77
2021/10/30 09:08:13;;;;;;;9.95;1.10;;;12.60;99.90;;;;;;4906317;29;20107;-77
2021/10/30 09:10:45;;;;;;;5.20;0.63;;;12.70;99.90;;;;;;4925799;29;20075;-76
2021/10/30 09:13:14;;;;;;;6.40;1.02;;;12.70;99.90;;;;;;4925243;29;20094;-77
2021/10/30 09:15:48;;;;;;;5.28;0.80;;;12.90;99.90;;;;;;4925799;29;20106;-77
2021/10/30 09:18:32;;;;;;;8.05;1.42;;;12.90;99.90;;;;;;4925902;29;20047;-77
2021/10/30 09:21:26;;;;;;;9.60;1.25;;;13.00;99.90;;;;;;4922332;29;20457;-76
2021/10/30 09:23:55;;;;;;;5.05;0.80;;;13.10;99.90;;;;;;4922576;29;20075;-77
2021/10/30 09:26:23;;;;;;;;;;;13.20;99.90;;;;;;4922394;29;20371;-76
2021/10/30 09:28:53;;;;;;;4.78;0.65;;;13.20;99.90;;;;;;4921918;29;19962;-76
2021/10/30 09:31:27;;;;;;;9.48;1.55;;;13.30;99.90;;;;;;4920008;29;20055;-77
2021/10/30 09:33:58;;;;;;;9.57;1.00;;;13.40;99.90;;;;;;4922443;29;20521;-77
2021/10/30 09:36:33;;;;;;;5.18;0.90;;;13.50;99.90;;;;;;4919516;29;20572;-77
2021/10/30 09:39:07;;;;;;;5.97;1.05;;;13.60;99.90;;;;;;4926036;29;20607;-77
2021/10/30 09:41:36;;;;;;;8.60;1.15;;;13.60;99.90;;;;;;4922674;29;20071;-77
2021/10/30 09:44:04;;;;;;;7.65;1.05;;;13.70;99.90;;;;;;4929101;29;20044;-78
2021/10/30 09:46:33;;;;;;;9.77;1.17;;;13.70;99.90;;;;;;4924904;28;20492;-77
2021/10/30 09:49:12;;;;;;;5.55;1.08;;;13.70;99.90;;;;;;4934470;29;20052;-78
2021/10/30 09:51:41;;;;;;;7.40;1.27;;;13.70;99.90;;;;;;4933620;29;20040;-75
2021/10/30 09:54:08;;;;;;;7.72;1.52;;;13.70;99.90;;;;;;4931570;29;20047;-76
2021/10/30 09:56:44;;;;;;;9.57;1.25;;;13.70;99.90;;;;;;4930833;29;20075;-76
2021/10/30 09:59:18;;;;;;;7.03;0.95;;;13.80;99.90;;;;;;4932247;29;20079;-76
2021/10/30 10:01:49;;;;;;;5.60;1.20;;;13.80;99.90;;;;;;4932602;29;20052;-77
2021/10/30 10:04:18;;;;;;;8.45;0.95;;;13.90;99.90;;;;;;4932569;29;20064;-77
2021/10/30 10:06:45;;;;;;;;;;;13.90;99.90;;;;;;4930226;28;20509;-78
2021/10/30 10:09:14;;;;;;;6.78;0.98;;;14.00;99.90;;;;;;4930674;28;19962;-76
2021/10/30 10:11:43;;;;;;;5.75;0.90;;;14.00;99.90;;;;;;4929301;28;20501;-75
2021/10/30 10:14:12;;;;;;;5.85;0.80;;;14.00;99.90;;;;;;4923464;28;20056;-76
2021/10/30 10:16:39;;;;;;;8.13;1.15;;;14.20;99.90;;;;;;4927979;28;20052;-76
2021/10/30 10:19:06;;;;;;;9.57;0.80;;;14.20;99.90;;;;;;4924715;28;20079;-78
2021/10/30 10:21:36;;;;;;;5.45;1.02;;;14.30;99.90;;;;;;4925960;28;20112;-78
2021/10/30 10:24:10;;;;;;;5.68;0.88;;;14.30;99.90;;;;;;4927951;29;20060;-77
2021/10/30 10:26:47;;;;;;;6.35;0.88;;;14.30;99.90;;;;;;4929287;29;20047;-78
2021/10/30 10:29:35;;;;;;;6.38;0.88;;;14.30;99.90;;;;;;4929417;28;20072;-77
2021/10/30 10:32:05;;;;;;;5.25;0.63;;;14.30;99.90;;;;;;4920922;29;20896;-78
2021/10/30 10:34:38;;;;;;;5.10;0.90;;;14.20;99.90;;;;;;4934053;29;20047;-78
2021/10/30 10:37:11;;;;;;;6.32;1.20;;;14.20;99.90;;;;;;4923751;28;20108;-75
2021/10/30 10:39:46;;;;;;;4.15;0.80;;;14.30;99.90;;;;;;4923485;28;20044;-76
2021/10/30 10:42:34;;;;;;;6.57;1.05;;;14.40;99.90;;;;;;4927732;29;20095;-75
2021/10/30 10:45:07;;;;;;;4.45;1.00;;;14.40;99.90;;;;;;4926830;29;20040;-76
2021/10/30 10:47:39;;;;;;;7.10;1.00;;;14.40;99.90;;;;;;4927571;29;20044;-76
2021/10/30 10:50:15;;;;;;;6.57;0.82;;;14.50;99.90;;;;;;4926634;28;20835;-75
2021/10/30 10:52:44;;;;;;;8.00;0.70;;;14.60;99.90;;;;;;4926737;29;20052;-76
2021/10/30 10:55:11;;;;;;;3.75;0.73;;;14.60;99.90;;;;;;4925107;28;20075;-76
2021/10/30 10:57:48;;;;;;;4.82;0.90;;;14.60;99.90;;;;;;4926855;28;20428;-75
2021/10/30 11:00:20;;;;;;;6.65;0.60;;;14.60;99.90;;;;;;4927210;28;20131;-80
2021/10/30 11:02:50;;;;;;;6.30;0.98;;;14.70;99.90;;;;;;4924864;29;20055;-77
2021/10/30 11:05:26;;;;;;;4.47;0.90;;;14.80;99.90;;;;;;4932994;29;20516;-78
2021/10/30 11:08:23;;;;;;;5.85;0.70;;;14.80;99.90;;;;;;4930031;28;20130;-79
2021/10/30 11:11:20;;;;;;;4.55;1.17;;;14.90;99.90;;;;;;4932300;29;20508;-77
2021/10/30 11:14:02;;;;;;;4.80;0.82;;;15.00;99.90;;;;;;4931611;29;20051;-77
2021/10/30 11:16:42;;;;;;;11.13;0.95;;;15.10;99.90;;;;;;4930064;29;20172;-77
2021/10/30 11:19:23;;;;;;;5.68;0.85;;;15.10;99.90;;;;;;4931081;28;20046;-78
2021/10/30 11:21:56;;;;;;;5.53;0.55;;;15.10;99.90;;;;;;4930342;29;20512;-77
2021/10/30 11:24:27;;;;;;;5.15;0.98;;;15.20;99.90;;;;;;4918964;29;20126;-78
2021/10/30 11:27:06;;;;;;;6.32;0.90;;;15.10;99.90;;;;;;4920540;29;20067;-77
2021/10/30 11:29:48;;;;;;;5.40;0.65;;;15.20;99.90;;;;;;4915190;29;20239;-85
2021/10/30 11:32:16;;;;;;;4.72;0.82;;;15.20;99.90;;;;;;4919027;29;20792;-80
2021/10/30 11:34:56;;;;;;;3.67;0.90;;;15.20;99.90;;;;;;4916878;29;20337;-80
2021/10/30 11:37:26;;;;;;;4.78;0.73;;;15.10;99.90;;;;;;4916338;29;20583;-80
2021/10/30 11:39:53;;;;;;;6.55;0.90;;;15.10;99.90;;;;;;4920566;29;20051;-79
2021/10/30 11:42:20;;;;;;;5.70;0.80;;;15.10;99.90;;;;;;4918290;28;20047;-79
2021/10/30 11:44:50;;;;;;;7.13;0.82;;;15.10;99.90;;;;;;4923587;29;20059;-78
2021/10/30 11:47:25;;;;;;;7.47;0.77;;;15.10;99.90;;;;;;4922504;29;20044;-79
2021/10/30 11:49:52;;;;;;;5.07;0.70;;;15.10;99.90;;;;;;4922353;29;20052;-79
2021/10/30 11:52:20;;;;;;;5.90;0.77;;;15.10;99.90;;;;;;4924799;29;20043;-79
2021/10/30 11:54:47;;;;;;;5.00;0.95;;;15.10;99.90;;;;;;4918814;29;20059;-78
2021/10/30 11:57:14;;;;;;;4.68;0.90;;;15.10;99.90;;;;;;4916936;29;20970;-78
2021/10/30 11:59:44;;;;;;;10.68;1.35;;;15.10;99.90;;;;;;4918815;29;20524;-78
2021/10/30 12:02:13;;;;;;;7.03;0.80;;;15.00;99.90;;;;;;4927216;29;20063;-79
2021/10/30 12:04:41;;;;;;;7.97;0.93;;;15.00;99.90;;;;;;4921385;29;20048;-78
2021/10/30 12:07:17;;;;;;;5.10;0.70;;;14.90;99.90;;;;;;4923545;28;20111;-79
2021/10/30 12:09:46;;;;;;;9.50;0.80;;;14.80;99.90;;;;;;4918420;29;20083;-80
2021/10/30 12:12:19;;;;;;;5.90;0.90;;;14.80;99.90;;;;;;4925964;29;20040;-80
2021/10/30 12:14:54;;;;;;;6.95;0.70;;;14.70;99.90;;;;;;4922735;29;20107;-79
2021/10/30 12:17:28;;;;;;;6.05;0.55;;;14.60;99.90;;;;;;4923858;29;20503;-79
2021/10/30 12:20:01;;;;;;;5.68;0.80;;;14.60;99.90;;;;;;4927852;29;20071;-79
2021/10/30 12:22:57;;;;;;;7.88;1.30;;;14.60;99.90;;;;;;4925326;29;20059;-78
2021/10/30 12:25:27;;;;;;;10.60;1.23;;;14.60;99.90;;;;;;4919418;29;20648;-79
2021/10/30 12:27:56;;;;;;;5.20;1.05;;;14.60;99.90;;;;;;4923286;29;20060;-79
2021/10/30 12:30:34;;;;;;;5.88;0.88;;;14.70;99.90;;;;;;4916605;29;20043;-79
2021/10/30 12:33:10;;;;;;;6.20;1.05;;;14.80;99.90;;;;;;4924395;29;20517;-80
2021/10/30 12:35:43;;;;;;;5.15;1.10;;;14.90;99.90;;;;;;4922251;29;20071;-79
2021/10/30 12:38:15;;;;;;;4.47;0.85;;;15.00;99.90;;;;;;4924714;29;20733;-80
2021/10/30 12:40:43;;;;;;;5.88;0.73;;;15.00;99.90;;;;;;4933361;28;20106;-79
2021/10/30 12:43:20;;;;;;;5.80;0.85;;;15.00;99.90;;;;;;4929339;29;20044;-80
2021/10/30 12:45:52;;;;;;;5.93;0.70;;;15.10;99.90;;;;;;4914713;29;20059;-80
2021/10/30 12:48:25;;;;;;;4.60;0.70;;;15.10;99.90;;;;;;4930515;29;20044;-80
2021/10/30 12:50:53;;;;;;;3.35;0.80;;;15.20;99.90;;;;;;4928304;28;20051;-80
2021/10/30 12:53:30;;;;;;;4.93;0.70;;;15.30;99.90;;;;;;4931649;29;20058;-80
2021/10/30 12:56:13;;;;;;;6.30;1.08;;;15.30;99.90;;;;;;4929976;29;20055;-80
2021/10/30 12:58:47;;;;;;;7.10;0.77;;;15.30;99.90;;;;;;4927967;29;20063;-79
2021/10/30 13:01:22;;;;;;;8.48;1.02;;;15.20;99.90;;;;;;4924883;29;20060;-80
2021/10/30 13:04:01;;;;;;;3.47;0.70;;;15.20;99.90;;;;;;4924372;29;20423;-79
2021/10/30 13:06:29;;;;;;;3.90;0.50;;;15.10;99.90;;;;;;4925582;29;20055;-79
2021/10/30 13:09:00;;;;;;;4.40;0.97;;;15.00;99.90;;;;;;4924684;29;20047;-79
2021/10/30 13:11:29;;;;;;;6.07;1.00;;;15.00;99.90;;;;;;4925762;29;20851;-80
2021/10/30 13:13:57;;;;;;;5.95;1.02;;;14.90;99.90;;;;;;4921177;29;20051;-81
2021/10/30 13:16:24;;;;;;;8.15;0.90;;;14.90;99.90;;;;;;4927902;28;20052;-80
2021/10/30 13:18:51;;;;;;;6.53;0.73;;;14.90;99.90;;;;;;4926553;29;20059;-81
2021/10/30 13:21:23;;;;;;;3.80;0.75;;;14.80;99.90;;;;;;4922112;29;20071;-79
2021/10/30 13:23:52;;;;;;;4.00;0.60;;;14.90;99.90;;;;;;4923676;29;20608;-79
2021/10/30 13:26:20;;;;;;;;;;;14.90;99.90;;;;;;4932098;29;20114;-80
2021/10/30 13:28:49;;;;;;;7.72;0.77;;;15.00;99.90;;;;;;4929864;29;20285;-80
2021/10/30 13:31:21;;;;;;;5.95;0.75;;;15.00;99.90;;;;;;4931001;29;20083;-80
2021/10/30 13:33:49;;;;;;;7.05;0.68;;;15.10;99.90;;;;;;4930090;29;20052;-80
2021/10/30 13:36:21;;;;;;;2.83;0.67;;;15.20;99.90;;;;;;4926233;29;20087;-79
2021/10/30 13:38:49;;;;;;;4.70;0.73;;;15.20;99.90;;;;;;4924396;29;20060;-78
2021/10/30 13:41:16;;;;;;;1.97;0.50;;;15.30;99.90;;;;;;4930073;29;20099;-79
2021/10/30 13:43:44;;;;;;;5.55;0.60;;;15.20;99.90;;;;;;4926005;29;20311;-79
2021/10/30 13:46:11;;;;;;;5.45;0.68;;;15.20;99.90;;;;;;4927599;29;20718;-79
2021/10/30 13:48:38;;;;;;;5.13;0.82;;;15.20;99.90;;;;;;4925176;29;20052;-79
2021/10/30 13:51:05;;;;;;;3.85;0.70;;;15.30;99.90;;;;;;4928515;29;20099;-80
2021/10/30 13:53:32;;;;;;;5.75;0.60;;;15.20;99.90;;;;;;4930343;29;20071;-79
2021/10/30 13:55:59;;;;;;;5.57;0.70;;;15.30;99.90;;;;;;4933013;29;20052;-80
2021/10/30 13:58:32;;;;;;;5.90;0.98;;;15.30;99.90;;;;;;4907116;29;20115;-80
2021/10/30 14:01:00;;;;;;;8.00;0.80;;;15.30;99.90;;;;;;4928554;29;20107;-80
2021/10/30 14:03:28;;;;;;;7.53;0.80;;;15.30;99.90;;;;;;4927174;28;20167;-81
2021/10/30 14:05:55;;;;;;;6.35;0.88;;;15.30;99.90;;;;;;4931636;29;20591;-82
2021/10/30 14:08:22;;;;;;;7.13;1.80;;;15.20;99.90;;;;;;4934418;29;20060;-81
2021/10/30 14:10:49;;;;;;;8.95;2.55;;;15.20;99.90;;;;;;4933031;29;20043;-81
2021/10/30 14:13:16;;;;;;;9.93;0.95;;;15.20;99.90;;;;;;4931035;29;20519;-82
2021/10/30 14:15:45;;;;;;;8.77;1.15;;;15.20;99.90;;;;;;4932001;29;20075;-80
2021/10/30 14:18:13;;;;;;;5.93;0.93;;;15.20;99.90;;;;;;4931432;29;20107;-82
2021/10/30 14:20:40;;;;;;;3.55;0.60;;;15.30;99.90;;;;;;4916470;29;20051;-81
2021/10/30 14:23:06;;;;;;;6.72;0.77;;;15.30;99.90;;;;;;4932945;29;20048;-81
2021/10/30 14:25:33;;;;;;;8.05;1.10;;;15.30;99.90;;;;;;4931763;29;20048;-81
2021/10/30 14:28:00;;;;;;;5.68;0.73;;;15.30;99.90;;;;;;4931078;29;20044;-82
2021/10/30 14:30:27;;;;;;;5.88;0.98;;;15.30;99.90;;;;;;4931016;29;20683;-81
2021/10/30 14:32:54;;;;;;;5.15;1.02;;;15.30;99.90;;;;;;4931973;29;20059;-81
2021/10/30 14:35:21;;;;;;;10.57;1.30;;;15.40;99.90;;;;;;4934199;29;20067;-81
2021/10/30 14:37:47;;;;;;;7.78;1.33;;;15.30;99.90;;;;;;4926587;29;20520;-82
2021/10/30 14:40:14;;;;;;;7.50;0.73;;;15.30;99.90;;;;;;4925954;29;20087;-81
2021/10/30 14:42:46;;;;;;;5.22;1.02;;;15.20;99.90;;;;;;4917713;29;20047;-81
2021/10/30 14:45:23;;;;;;;6.30;1.13;;;15.20;99.90;;;;;;4930801;29;20532;-79
2021/10/30 14:47:50;;;;;;;5.65;0.60;;;15.10;99.90;;;;;;4918022;29;20052;-80
2021/10/30 14:50:17;;;;;;;5.18;0.70;;;15.10;99.90;;;;;;4933398;29;20051;-81
2021/10/30 14:52:44;;;;;;;7.93;0.85;;;15.10;99.90;;;;;;4931100;29;20433;-81
2021/10/30 14:55:14;;;;;;;4.55;0.82;;;15.10;99.90;;;;;;4930048;29;20047;-82
2021/10/30 14:57:41;;;;;;;4.72;1.00;;;15.10;99.90;;;;;;4931298;29;20284;-81
2021/10/30 15:00:11;;;;;;;8.57;1.00;;;15.10;99.90;;;;;;4932132;29;20531;-81
2021/10/30 15:02:38;;;;;;;6.47;0.98;;;15.10;99.90;;;;;;4902657;29;20052;-80
2021/10/30 15:05:05;;;;;;;4.75;0.68;;;15.10;99.90;;;;;;4934128;29;20643;-80
2021/10/30 15:07:32;;;;;;;5.50;1.10;;;15.10;99.90;;;;;;4932761;29;20099;-81
2021/10/30 15:09:59;;;;;;;11.10;1.20;;;15.00;99.90;;;;;;4930421;29;20512;-83
2021/10/30 15:12:26;;;;;;;7.68;0.88;;;15.00;99.90;;;;;;4925374;29;20070;-82
2021/10/30 15:14:53;;;;;;;6.57;1.20;;;15.00;99.90;;;;;;4932254;29;20071;-81
2021/10/30 15:17:21;;;;;;;6.63;1.02;;;15.10;99.90;;;;;;4926935;29;20150;-82
2021/10/30 15:19:48;;;;;;;4.53;0.80;;;15.10;99.90;;;;;;4928508;29;20047;-83
2021/10/30 15:22:16;;;;;;;5.57;0.73;;;15.00;99.90;;;;;;4913487;29;20063;-83
2021/10/30 15:24:43;;;;;;;4.55;1.00;;;15.00;99.90;;;;;;4920587;29;20055;-83
2021/10/30 15:27:11;;;;;;;7.97;1.20;;;15.00;99.90;;;;;;4921509;28;20529;-82
2021/10/30 15:29:39;;;;;;;6.68;1.08;;;15.00;99.90;;;;;;4904976;29;20059;-80
2021/10/30 15:32:11;;;;;;;8.27;1.15;;;15.00;99.90;;;;;;4914062;29;20052;-80
2021/10/30 15:34:44;;;;;;;7.00;1.20;;;15.00;99.90;;;;;;4919120;29;20051;-81
2021/10/30 15:37:11;;;;;;;4.88;1.50;;;14.90;99.90;;;;;;4917064;29;20051;-82
2021/10/30 15:39:42;;;;;;;5.43;1.42;;;14.90;99.90;;;;;;4897520;29;20078;-82
2021/10/30 15:42:09;;;;;;;7.47;1.73;;;14.90;99.90;;;;;;4921477;29;20115;-82
2021/10/30 15:44:38;;;;;;;8.95;2.58;;;14.80;99.90;;;;;;4921193;29;20127;-82
2021/10/30 15:47:07;;;;;;;11.20;5.43;;;14.80;99.90;;;;;;4921152;29;20143;-81
2021/10/30 15:49:36;;;;;;;10.13;3.85;;;14.80;99.90;;;;;;4935997;28;20047;-81
2021/10/30 15:52:05;;;;;;;5.43;0.93;;;14.80;99.90;;;;;;4940263;28;20536;-80
2021/10/30 15:54:32;;;;;;;11.70;5.68;;;14.70;99.90;;;;;;4931565;28;20043;-80
2021/10/30 15:57:01;;;;;;;22.00;9.23;;;14.70;99.90;;;;;;4928021;29;20048;-83
2021/10/30 15:59:33;;;;;;;12.32;5.75;;;14.70;99.90;;;;;;4926051;29;20285;-84
2021/10/30 16:02:00;;;;;;;11.98;5.40;;;14.70;99.90;;;;;;4900676;29;20064;-82
2021/10/30 16:04:35;;;;;;;11.18;2.83;;;14.70;99.90;;;;;;4884095;29;20055;-81
2021/10/30 16:07:04;;;;;;;11.13;4.80;;;14.60;99.90;;;;;;4884795;29;20052;-81
2021/10/30 16:09:32;;;;;;;9.82;3.95;;;14.60;99.90;;;;;;4881645;29;20055;-81
2021/10/30 16:12:02;;;;;;;11.00;3.95;;;14.60;99.90;;;;;;4890453;29;20055;-80
2021/10/30 16:14:31;;;;;;;15.38;8.88;;;14.50;99.90;;;;;;4887547;29;20518;-81
2021/10/30 16:16:59;;;;;;;12.95;6.50;;;14.50;99.90;;;;;;4885792;29;20537;-81
2021/10/30 16:19:41;;;;;;;7.22;1.50;;;14.50;99.90;;;;;;4886044;29;20126;-81
2021/10/30 16:22:08;;;;;;;8.55;1.40;;;14.50;99.90;;;;;;4888058;29;20056;-81
2021/10/30 16:24:36;;;;;;;7.32;1.67;;;14.40;99.90;;;;;;4874551;29;20060;-81
2021/10/30 16:27:03;;;;;;;7.90;1.70;;;14.40;99.90;;;;;;4888142;29;20097;-81
2021/10/30 16:29:31;;;;;;;8.77;1.52;;;14.30;99.90;;;;;;4887415;29;20079;-82
2021/10/30 16:31:58;;;;;;;10.00;1.50;;;14.30;99.90;;;;;;4885306;29;20053;-81
2021/10/30 16:34:25;;;;;;;6.53;1.20;;;14.20;99.90;;;;;;4887694;29;20021;-82
2021/10/30 16:36:52;;;;;;;8.25;1.17;;;14.20;99.90;;;;;;4887678;29;20127;-82
2021/10/30 16:39:19;;;;;;;6.85;1.90;;;14.10;99.90;;;;;;4880030;29;20044;-82
2021/10/30 16:41:46;;;;;;;13.43;2.33;;;14.00;99.90;;;;;;4886805;29;20060;-83
2021/10/30 16:44:14;;;;;;;5.57;1.80;;;14.00;99.90;;;;;;4886369;29;20053;-82
2021/10/30 16:46:43;;;;;;;10.77;2.30;;;13.90;99.90;;;;;;4888183;29;20052;-82
2021/10/30 16:49:10;;;;;;;11.90;4.50;;;13.90;99.90;;;;;;4879925;29;20445;-82
2021/10/30 16:51:42;;;;;;;12.13;4.85;;;13.80;99.90;;;;;;4882667;29;20053;-82
2021/10/30 16:54:09;;;;;;;10.02;3.20;;;13.70;99.90;;;;;;4887071;29;20468;-84
2021/10/30 16:56:38;;;;;;;9.10;2.50;;;13.70;99.90;;;;;;4890285;29;20063;-83
2021/10/30 16:59:07;;;;;;;8.70;1.98;;;13.70;99.90;;;;;;4888515;29;20109;-82
2021/10/30 17:01:35;;;;;;;10.88;2.45;;;13.60;99.90;;;;;;4889713;29;20052;-82
2021/10/30 17:04:03;;;;;;;7.68;1.33;;;13.60;99.90;;;;;;4925865;29;20052;-83
2021/10/30 17:06:30;;;;;;;6.40;1.30;;;13.50;99.90;;;;;;4927308;29;20515;-82
2021/10/30 17:08:57;;;;;;;9.15;1.40;;;13.40;99.90;;;;;;4909618;29;20059;-82
2021/10/30 17:11:26;;;;;;;7.80;1.80;;;13.40;99.90;;;;;;4919920;29;20048;-83
2021/10/30 17:13:55;;;;;;;9.25;1.65;;;13.30;99.90;;;;;;4926401;29;20111;-82
2021/10/30 17:16:22;;;;;;;9.60;2.25;;;13.30;99.90;;;;;;4907185;29;20060;-83
2021/10/30 17:18:50;;;;;;;10.52;4.18;;;13.30;99.90;;;;;;4927337;29;20389;-83
2021/10/30 17:21:17;;;;;;;31.30;15.75;;;13.20;99.90;;;;;;4919322;29;20052;-82
2021/10/30 17:23:47;;;;;;;20.60;10.70;;;13.20;99.90;;;;;;4926869;29;20058;-83
2021/10/30 17:26:15;;;;;;;14.02;6.80;;;13.10;99.90;;;;;;4921877;28;20107;-82
2021/10/30 17:28:46;;;;;;;17.38;9.13;;;13.10;99.90;;;;;;4915044;29;20339;-83
2021/10/30 17:31:13;;;;;;;13.68;6.25;;;13.10;99.90;;;;;;4928018;28;20067;-83
2021/10/30 17:33:39;;;;;;;14.93;4.25;;;13.00;99.90;;;;;;4907399;29;20071;-83
2021/10/30 17:36:08;;;;;;;13.07;4.95;;;13.00;99.90;;;;;;4921690;28;20070;-83
2021/10/30 17:38:35;;;;;;;9.45;2.47;;;12.90;99.90;;;;;;4897759;29;20083;-83
2021/10/30 17:41:03;;;;;;;5.68;2.00;;;12.90;99.90;;;;;;4924629;29;20058;-83
2021/10/30 17:43:30;;;;;;;10.25;2.42;;;12.90;99.90;;;;;;4924225;29;20123;-83
2021/10/30 17:45:58;;;;;;;13.00;2.92;;;12.80;99.90;;;;;;4924035;28;20095;-83
2021/10/30 17:48:25;;;;;;;10.05;2.63;;;12.80;99.90;;;;;;4922569;28;20111;-83
2021/10/30 17:50:52;;;;;;;9.63;2.40;;;12.80;99.90;;;;;;4922376;28;20052;-83
2021/10/30 17:53:21;;;;;;;9.38;2.55;;;12.80;99.90;;;;;;4924674;28;20095;-84
2021/10/30 17:56:06;;;;;;;11.07;2.83;;;12.80;99.90;;;;;;4925565;28;20142;-83
2021/10/30 17:58:33;;;;;;;8.82;2.03;;;12.70;99.90;;;;;;4926229;29;20095;-83
2021/10/30 18:01:00;;;;;;;9.02;2.50;;;12.70;99.90;;;;;;4927295;29;20035;-83
2021/10/30 18:03:28;;;;;;;10.95;2.63;;;12.70;99.90;;;;;;4928591;29;20055;-83
2021/10/30 18:05:55;;;;;;;9.18;3.00;;;12.70;99.90;;;;;;4933371;29;20075;-83
2021/10/30 18:08:23;;;;;;;9.70;4.07;;;12.70;99.90;;;;;;4916978;29;20059;-83
2021/10/30 18:10:52;;;;;;;12.00;3.90;;;12.70;99.90;;;;;;4933160;29;20118;-83
2021/10/30 18:13:19;;;;;;;;;;;12.70;99.90;;;;;;4933043;29;20048;-83
2021/10/30 18:15:46;;;;;;;7.18;3.00;;;12.70;99.90;;;;;;4932711;29;19982;-83
2021/10/30 18:18:13;;;;;;;9.90;4.22;;;12.70;99.90;;;;;;4929097;29;20657;-83
2021/10/30 18:20:42;;;;;;;11.02;4.72;;;12.70;99.90;;;;;;4924858;29;20040;-84
2021/10/30 18:23:09;;;;;;;15.73;4.68;;;12.70;99.90;;;;;;4930676;29;20570;-83
2021/10/30 18:25:35;;;;;;;12.90;3.58;;;12.70;99.90;;;;;;4925145;29;20142;-83
2021/10/30 18:28:03;;;;;;;13.63;3.80;;;12.70;99.90;;;;;;4925411;29;20116;-83
2021/10/30 18:30:30;;;;;;;10.38;3.30;;;12.70;99.90;;;;;;4917945;29;20044;-83
2021/10/30 18:32:58;;;;;;;12.73;3.65;;;12.60;99.90;;;;;;4919997;29;20056;-83
2021/10/30 18:35:30;;;;;;;8.45;2.80;;;12.60;99.90;;;;;;4921874;29;20103;-83
2021/10/30 18:37:57;;;;;;;8.50;2.80;;;12.60;99.90;;;;;;4923750;29;20048;-83
2021/10/30 18:40:24;;;;;;;11.50;2.55;;;12.60;99.90;;;;;;4922558;29;20036;-82
2021/10/30 18:42:51;;;;;;;7.82;2.05;;;12.60;99.90;;;;;;4923002;29;20147;-83
2021/10/30 18:45:22;;;;;;;8.02;1.70;;;12.70;99.90;;;;;;4921196;29;20098;-83
2021/10/30 18:47:50;;;;;;;7.78;1.98;;;12.70;99.90;;;;;;4924462;29;20107;-83
2021/10/30 18:50:18;;;;;;;9.85;1.65;;;12.60;99.90;;;;;;4926987;29;20056;-83
2021/10/30 18:52:45;;;;;;;8.27;1.80;;;12.70;99.90;;;;;;4922864;29;20130;-83
2021/10/30 18:55:12;;;;;;;10.15;2.38;;;12.70;99.90;;;;;;4923728;28;20071;-83
2021/10/30 18:58:00;;;;;;;9.57;2.00;;;12.60;99.90;;;;;;4921137;29;20052;-83
2021/10/30 19:00:26;;;;;;;5.15;1.60;;;12.60;99.90;;;;;;4919000;29;20087;-82